Time;durP1;ratioP1;P1;durP2;ratioP2;P2;SDS_P1;SDS_P2;PMS_P1;PMS_P2;Temp;Humidity;BMP_temperature;BMP_pressure;BME280_temperature;BME280_humidity;BME280_pressure;Samples;Min_cycle;Max_cycle;Signal;HPM_P1;HPM_P2
2021/09/22 00:01:29;;;;;;;;;41.25;34.00;;;;;;;;5034176;28;51379;-54
2021/09/22 00:03:54;;;;;;;;;38.25;34.00;;;;;;;;5015519;28;51130;-54
2021/09/22 00:06:19;;;;;;;;;37.25;33.75;;;;;;;;5002573;28;51912;-54
2021/09/22 00:08:44;;;;;;;;;31.50;29.25;;;;;;;;5018442;28;51138;-55
2021/09/22 00:11:10;;;;;;;;;35.75;32.50;;;;;;;;5034201;28;51095;-55
2021/09/22 00:13:35;;;;;;;;;35.75;33.50;;;;;;;;5033091;28;51076;-55
2021/09/22 00:16:00;;;;;;;;;35.75;32.25;;;;;;;;5030438;28;51133;-55
2021/09/22 00:18:26;;;;;;;;;36.00;33.00;;;;;;;;5020216;28;50952;-55
2021/09/22 00:20:51;;;;;;;;;35.00;33.00;;;;;;;;5033615;28;51189;-56
2021/09/22 00:23:16;;;;;;;;;35.25;34.00;;;;;;;;5033168;28;51100;-54
2021/09/22 00:25:41;;;;;;;;;37.25;34.00;;;;;;;;5029330;28;51658;-54
2021/09/22 00:28:07;;;;;;;;;36.25;33.00;;;;;;;;5021811;28;50899;-54
2021/09/22 00:30:33;;;;;;;;;36.00;34.00;;;;;;;;5032953;28;50999;-54
2021/09/22 00:33:00;;;;;;;;;42.50;35.00;;;;;;;;5025476;28;51010;-55
2021/09/22 00:35:25;;;;;;;;;40.75;34.00;;;;;;;;5025060;28;52004;-54
2021/09/22 00:37:50;;;;;;;;;42.25;35.25;;;;;;;;5013923;28;50945;-55
2021/09/22 00:40:16;;;;;;;;;42.50;35.25;;;;;;;;5033132;28;51083;-55
2021/09/22 00:42:41;;;;;;;;;39.50;34.25;;;;;;;;5013948;28;51059;-55
2021/09/22 00:45:08;;;;;;;;;38.75;34.50;;;;;;;;5030207;28;52215;-55
2021/09/22 00:47:33;;;;;;;;;41.50;36.00;;;;;;;;5023666;28;51092;-53
2021/09/22 00:49:59;;;;;;;;;40.50;35.00;;;;;;;;5028342;28;51275;-55
2021/09/22 00:52:24;;;;;;;;;37.00;33.00;;;;;;;;5033672;28;51343;-54
2021/09/22 00:54:50;;;;;;;;;38.50;33.75;;;;;;;;5032830;28;52096;-54
2021/09/22 00:57:19;;;;;;;;;41.50;36.50;;;;;;;;5031881;28;50969;-54
2021/09/22 00:59:44;;;;;;;;;40.50;34.25;;;;;;;;5024463;28;51211;-54
2021/09/22 01:02:10;;;;;;;;;41.25;32.25;;;;;;;;5033313;28;50914;-54
2021/09/22 01:04:38;;;;;;;;;35.75;33.25;;;;;;;;5032869;28;52581;-54
2021/09/22 01:07:04;;;;;;;;;38.50;34.25;;;;;;;;5031930;28;51139;-54
2021/09/22 01:09:29;;;;;;;;;40.00;34.25;;;;;;;;5025974;28;51147;-53
2021/09/22 01:11:54;;;;;;;;;37.50;32.25;;;;;;;;5021415;28;51423;-54
2021/09/22 01:14:21;;;;;;;;;41.00;35.25;;;;;;;;5014976;28;51696;-54
2021/09/22 01:16:46;;;;;;;;;37.75;34.00;;;;;;;;5017130;28;51384;-54
2021/09/22 01:19:12;;;;;;;;;44.75;34.50;;;;;;;;5032120;28;51174;-54
2021/09/22 01:21:41;;;;;;;;;39.50;35.00;;;;;;;;5033130;28;50847;-54
2021/09/22 01:24:06;;;;;;;;;42.50;36.00;;;;;;;;5029952;28;51355;-55
2021/09/22 01:26:32;;;;;;;;;37.50;33.50;;;;;;;;5031767;28;51123;-55
2021/09/22 01:28:57;;;;;;;;;45.50;35.25;;;;;;;;5023960;28;51141;-54
2021/09/22 01:31:23;;;;;;;;;41.00;34.25;;;;;;;;5032673;28;51172;-54
2021/09/22 01:33:48;;;;;;;;;43.25;34.50;;;;;;;;5032618;28;51913;-54
2021/09/22 01:36:14;;;;;;;;;35.00;32.25;;;;;;;;5021202;28;51159;-54
2021/09/22 01:38:40;;;;;;;;;36.75;31.00;;;;;;;;5027794;28;51053;-55
2021/09/22 01:41:07;;;;;;;;;40.50;35.50;;;;;;;;5020507;28;51089;-54
2021/09/22 01:43:33;;;;;;;;;38.00;34.50;;;;;;;;5014983;28;54624;-55
2021/09/22 01:45:59;;;;;;;;;41.00;36.00;;;;;;;;5034299;28;50931;-54
2021/09/22 01:48:24;;;;;;;;;35.75;32.25;;;;;;;;5028811;28;50979;-54
2021/09/22 01:50:50;;;;;;;;;42.00;36.25;;;;;;;;5035140;28;50950;-53
2021/09/22 01:53:16;;;;;;;;;44.00;36.25;;;;;;;;5035694;28;51917;-54
2021/09/22 01:55:41;;;;;;;;;33.75;32.00;;;;;;;;5028039;28;51719;-54
2021/09/22 01:58:06;;;;;;;;;43.75;36.75;;;;;;;;5026110;28;52020;-54
2021/09/22 02:00:32;;;;;;;;;38.75;33.75;;;;;;;;5036286;28;51025;-54
2021/09/22 02:02:57;;;;;;;;;37.50;33.75;;;;;;;;5035920;28;51750;-54
2021/09/22 02:05:22;;;;;;;;;36.75;34.75;;;;;;;;5033901;28;51044;-54
2021/09/22 02:07:47;;;;;;;;;38.00;33.25;;;;;;;;5034764;28;51065;-54
2021/09/22 02:10:12;;;;;;;;;38.50;34.75;;;;;;;;5035525;28;51208;-53
2021/09/22 02:12:38;;;;;;;;;42.00;36.50;;;;;;;;5015391;28;53102;-54
2021/09/22 02:15:04;;;;;;;;;40.75;35.50;;;;;;;;5030523;28;51061;-55
2021/09/22 02:17:29;;;;;;;;;37.25;33.75;;;;;;;;5027918;28;51319;-54
2021/09/22 02:19:54;;;;;;;;;44.25;37.50;;;;;;;;5016160;28;51356;-54
2021/09/22 02:22:20;;;;;;;;;38.50;36.00;;;;;;;;5015672;28;51613;-55
2021/09/22 02:24:45;;;;;;;;;40.00;36.00;;;;;;;;5015031;28;51026;-54
2021/09/22 02:27:11;;;;;;;;;44.75;38.00;;;;;;;;5028739;28;51147;-53
2021/09/22 02:29:37;;;;;;;;;46.50;39.00;;;;;;;;5035975;28;51060;-54
2021/09/22 02:32:03;;;;;;;;;44.50;37.00;;;;;;;;5035288;28;51086;-55
2021/09/22 02:34:29;;;;;;;;;43.00;37.50;;;;;;;;5017984;28;51029;-55
2021/09/22 02:36:54;;;;;;;;;43.00;36.50;;;;;;;;5029921;28;51168;-53
2021/09/22 02:39:19;;;;;;;;;42.50;37.75;;;;;;;;5035470;28;51383;-54
2021/09/22 02:41:45;;;;;;;;;37.50;35.25;;;;;;;;5018729;28;51277;-54
2021/09/22 02:44:10;;;;;;;;;44.25;36.75;;;;;;;;5025713;28;50893;-54
2021/09/22 02:46:35;;;;;;;;;45.25;38.00;;;;;;;;5006907;28;52355;-55
2021/09/22 02:49:00;;;;;;;;;48.75;38.25;;;;;;;;5035505;28;51315;-55
2021/09/22 02:51:25;;;;;;;;;44.75;36.75;;;;;;;;5022209;28;51770;-55
2021/09/22 02:53:51;;;;;;;;;47.75;38.75;;;;;;;;5028115;28;50821;-55
2021/09/22 02:56:16;;;;;;;;;42.00;34.50;;;;;;;;5032600;28;50922;-55
2021/09/22 02:58:41;;;;;;;;;39.50;35.00;;;;;;;;5034400;28;50886;-54
2021/09/22 03:01:07;;;;;;;;;43.50;36.50;;;;;;;;5033724;28;52248;-54
2021/09/22 03:03:32;;;;;;;;;49.50;40.00;;;;;;;;5016250;28;51179;-55
2021/09/22 03:05:57;;;;;;;;;42.25;35.75;;;;;;;;5034945;28;50958;-54
2021/09/22 03:08:22;;;;;;;;;36.00;33.00;;;;;;;;5033594;28;51336;-55
2021/09/22 03:10:48;;;;;;;;;47.75;38.50;;;;;;;;5030601;28;51790;-55
2021/09/22 03:13:13;;;;;;;;;43.75;38.00;;;;;;;;5034581;28;51018;-53
2021/09/22 03:15:38;;;;;;;;;36.75;33.75;;;;;;;;5026525;28;51219;-53
2021/09/22 03:18:03;;;;;;;;;47.50;38.25;;;;;;;;5029653;28;51132;-54
2021/09/22 03:20:28;;;;;;;;;46.50;36.50;;;;;;;;5005190;28;52020;-54
2021/09/22 03:22:54;;;;;;;;;43.50;37.75;;;;;;;;5024301;28;50973;-54
2021/09/22 03:25:19;;;;;;;;;41.50;35.75;;;;;;;;5033394;28;51182;-54
2021/09/22 03:27:44;;;;;;;;;43.25;36.00;;;;;;;;5032366;28;51011;-54
2021/09/22 03:30:10;;;;;;;;;43.25;36.25;;;;;;;;5034372;28;51757;-54
2021/09/22 03:32:35;;;;;;;;;41.75;36.00;;;;;;;;5024892;28;51619;-55
2021/09/22 03:35:01;;;;;;;;;39.25;35.50;;;;;;;;5033630;28;51118;-54
2021/09/22 03:37:26;;;;;;;;;44.00;37.75;;;;;;;;5032737;28;51295;-55
2021/09/22 03:39:51;;;;;;;;;42.75;35.75;;;;;;;;5033884;28;51799;-54
2021/09/22 03:42:16;;;;;;;;;42.25;36.75;;;;;;;;5032957;28;51085;-54
2021/09/22 03:44:41;;;;;;;;;38.75;35.50;;;;;;;;5022767;28;51112;-54
2021/09/22 03:47:07;;;;;;;;;40.50;36.00;;;;;;;;5033391;28;51058;-54
2021/09/22 03:49:32;;;;;;;;;44.00;36.00;;;;;;;;5034017;28;51781;-54
2021/09/22 03:51:57;;;;;;;;;45.75;37.50;;;;;;;;5026926;28;51085;-54
2021/09/22 03:54:23;;;;;;;;;48.25;40.00;;;;;;;;5030653;28;50809;-54
2021/09/22 03:56:48;;;;;;;;;37.50;34.25;;;;;;;;5030502;28;51002;-53
2021/09/22 03:59:13;;;;;;;;;47.25;39.00;;;;;;;;5022871;28;51844;-54
2021/09/22 04:01:39;;;;;;;;;44.50;38.25;;;;;;;;5033956;28;51073;-54
2021/09/22 04:04:04;;;;;;;;;42.75;38.00;;;;;;;;5034275;28;50914;-54
2021/09/22 04:06:29;;;;;;;;;41.50;35.75;;;;;;;;5031943;28;50976;-54
2021/09/22 04:08:54;;;;;;;;;40.50;36.25;;;;;;;;5028411;28;51934;-55
2021/09/22 04:11:20;;;;;;;;;40.25;35.50;;;;;;;;5029009;28;50941;-55
2021/09/22 04:13:45;;;;;;;;;38.00;34.50;;;;;;;;5029533;28;51106;-55
2021/09/22 04:16:11;;;;;;;;;45.25;38.25;;;;;;;;5018464;28;51381;-55
2021/09/22 04:18:37;;;;;;;;;38.50;32.25;;;;;;;;5023226;28;52728;-54
2021/09/22 04:21:02;;;;;;;;;39.25;35.00;;;;;;;;5033818;28;51188;-55
2021/09/22 04:23:28;;;;;;;;;42.50;37.00;;;;;;;;5033773;28;51116;-55
2021/09/22 04:25:53;;;;;;;;;40.25;36.00;;;;;;;;5032305;28;51303;-55
2021/09/22 04:28:18;;;;;;;;;37.75;35.00;;;;;;;;5025706;28;51854;-55
2021/09/22 04:30:43;;;;;;;;;41.75;35.25;;;;;;;;5033818;28;51120;-55
2021/09/22 04:33:08;;;;;;;;;41.25;36.50;;;;;;;;5033766;28;51012;-55
2021/09/22 04:35:34;;;;;;;;;41.50;35.50;;;;;;;;5032596;28;51255;-55
2021/09/22 04:38:00;;;;;;;;;44.25;36.75;;;;;;;;5026249;28;51078;-55
2021/09/22 04:40:28;;;;;;;;;40.50;34.50;;;;;;;;5033252;28;50920;-54
2021/09/22 04:42:54;;;;;;;;;41.50;35.75;;;;;;;;5033584;28;51004;-55
2021/09/22 04:45:20;;;;;;;;;42.25;36.25;;;;;;;;5032659;28;51126;-54
2021/09/22 04:47:45;;;;;;;;;40.00;35.75;;;;;;;;5041937;28;51899;-55
2021/09/22 04:50:10;;;;;;;;;39.00;33.75;;;;;;;;5016460;28;51183;-55
2021/09/22 04:52:36;;;;;;;;;41.25;37.50;;;;;;;;5013364;28;50809;-55
2021/09/22 04:55:01;;;;;;;;;44.75;36.00;;;;;;;;5012875;28;51213;-55
2021/09/22 04:57:26;;;;;;;;;45.25;38.00;;;;;;;;5024544;28;50899;-55
2021/09/22 04:59:51;;;;;;;;;43.25;37.00;;;;;;;;5032987;28;51200;-55
2021/09/22 05:02:16;;;;;;;;;37.25;34.50;;;;;;;;5031178;28;51029;-54
2021/09/22 05:04:42;;;;;;;;;42.75;37.00;;;;;;;;5033366;28;51276;-54
2021/09/22 05:07:07;;;;;;;;;47.75;39.00;;;;;;;;5031856;28;51820;-53
2021/09/22 05:09:33;;;;;;;;;60.75;49.00;;;;;;;;5032577;28;51335;-55
2021/09/22 05:12:00;;;;;;;;;51.50;41.00;;;;;;;;5028824;28;50960;-53
2021/09/22 05:14:25;;;;;;;;;42.00;35.50;;;;;;;;5029929;28;51183;-54
2021/09/22 05:16:51;;;;;;;;;39.75;34.00;;;;;;;;5019274;28;51035;-53
2021/09/22 05:19:16;;;;;;;;;41.00;35.75;;;;;;;;5017932;28;51023;-56
2021/09/22 05:21:41;;;;;;;;;39.50;35.75;;;;;;;;5013278;28;51267;-54
2021/09/22 05:24:06;;;;;;;;;47.50;39.25;;;;;;;;5031790;28;51296;-54
2021/09/22 05:26:31;;;;;;;;;41.50;35.75;;;;;;;;5037463;28;52631;-54
2021/09/22 05:28:57;;;;;;;;;46.75;39.50;;;;;;;;5025083;28;50935;-54
2021/09/22 05:31:22;;;;;;;;;39.75;34.75;;;;;;;;5017726;28;50859;-54
2021/09/22 05:33:47;;;;;;;;;43.50;37.00;;;;;;;;4995440;28;50897;-54
2021/09/22 05:36:12;;;;;;;;;45.25;37.00;;;;;;;;5009990;28;51907;-53
2021/09/22 05:38:38;;;;;;;;;43.25;35.50;;;;;;;;5028166;28;51169;-54
2021/09/22 05:41:03;;;;;;;;;38.50;34.75;;;;;;;;5032437;28;51590;-55
2021/09/22 05:43:28;;;;;;;;;44.25;36.00;;;;;;;;5032545;28;51086;-55
2021/09/22 05:45:53;;;;;;;;;42.75;37.50;;;;;;;;5011709;28;51513;-55
2021/09/22 05:48:19;;;;;;;;;40.50;35.25;;;;;;;;5031915;28;50993;-55
2021/09/22 05:50:44;;;;;;;;;45.50;38.50;;;;;;;;5032288;28;51024;-55
2021/09/22 05:53:09;;;;;;;;;43.25;37.75;;;;;;;;5032090;28;51204;-55
2021/09/22 05:55:34;;;;;;;;;41.00;34.25;;;;;;;;5032204;28;50915;-54
2021/09/22 05:58:00;;;;;;;;;41.00;35.25;;;;;;;;5027769;28;50947;-55
2021/09/22 06:00:25;;;;;;;;;45.50;37.50;;;;;;;;5028689;28;51048;-55
2021/09/22 06:02:50;;;;;;;;;48.00;38.00;;;;;;;;5031889;28;51070;-55
2021/09/22 06:05:15;;;;;;;;;43.25;38.00;;;;;;;;5031945;28;51639;-54
2021/09/22 06:07:41;;;;;;;;;37.75;32.00;;;;;;;;5031825;28;50925;-53
2021/09/22 06:10:06;;;;;;;;;48.25;37.00;;;;;;;;5031413;28;51096;-56
2021/09/22 06:12:31;;;;;;;;;45.00;37.50;;;;;;;;5032112;28;51022;-54
2021/09/22 06:14:56;;;;;;;;;38.50;35.50;;;;;;;;5028406;28;51730;-54
2021/09/22 06:17:22;;;;;;;;;44.50;37.00;;;;;;;;5007432;28;51056;-60
2021/09/22 06:19:47;;;;;;;;;43.25;36.00;;;;;;;;5289922;22;51690;-57
2021/09/22 06:22:12;;;;;;;;;40.50;36.00;;;;;;;;5024381;28;51059;-56
2021/09/22 06:24:38;;;;;;;;;41.75;36.75;;;;;;;;5030183;28;51134;-57
2021/09/22 06:29:34;;;;;;;;;42.25;37.00;;;;;;;;5045368;28;51148;-54
2021/09/22 06:32:00;;;;;;;;;40.75;36.00;;;;;;;;5048039;28;51106;-54
2021/09/22 06:34:25;;;;;;;;;41.00;36.25;;;;;;;;5037658;28;52711;-53
2021/09/22 06:36:50;;;;;;;;;48.75;37.25;;;;;;;;5036142;28;51189;-53
2021/09/22 06:39:15;;;;;;;;;45.75;35.25;;;;;;;;5054140;28;51074;-54
2021/09/22 06:41:41;;;;;;;;;41.50;37.75;;;;;;;;5052371;28;51119;-53
2021/09/22 06:44:06;;;;;;;;;40.00;35.25;;;;;;;;5054681;28;51844;-51
2021/09/22 06:46:34;;;;;;;;;33.50;32.00;;;;;;;;5051688;28;52738;-54
2021/09/22 06:49:00;;;;;;;;;44.75;38.00;;;;;;;;5055057;28;50871;-53
2021/09/22 06:51:25;;;;;;;;;44.00;35.00;;;;;;;;5053731;28;51375;-53
2021/09/22 06:53:50;;;;;;;;;42.50;36.25;;;;;;;;5045900;28;51823;-54
2021/09/22 06:56:16;;;;;;;;;43.75;38.00;;;;;;;;5042808;28;50985;-49
2021/09/22 06:58:41;;;;;;;;;41.00;34.25;;;;;;;;5034826;28;51212;-55
2021/09/22 07:01:06;;;;;;;;;45.25;36.25;;;;;;;;5017050;28;51436;-53
2021/09/22 07:03:32;;;;;;;;;42.75;36.00;;;;;;;;5034396;28;52100;-53
2021/09/22 07:05:57;;;;;;;;;38.00;33.00;;;;;;;;5016200;28;51070;-52
2021/09/22 07:08:23;;;;;;;;;42.25;35.25;;;;;;;;5034002;28;51089;-49
2021/09/22 07:10:49;;;;;;;;;38.50;33.00;;;;;;;;5034763;28;50909;-50
2021/09/22 07:13:14;;;;;;;;;40.00;35.00;;;;;;;;5038640;28;51206;-51
2021/09/22 07:15:39;;;;;;;;;36.25;31.50;;;;;;;;5025631;28;51120;-52
2021/09/22 07:18:05;;;;;;;;;37.00;32.75;;;;;;;;5039902;28;51082;-54
2021/09/22 07:20:30;;;;;;;;;37.50;32.50;;;;;;;;5034444;28;51061;-51
2021/09/22 07:22:56;;;;;;;;;35.00;32.00;;;;;;;;5034300;28;51853;-53
2021/09/22 07:25:21;;;;;;;;;39.00;34.00;;;;;;;;5047545;28;51238;-51
2021/09/22 07:27:46;;;;;;;;;36.75;33.75;;;;;;;;5050731;28;51273;-52
2021/09/22 07:30:15;;;;;;;;;41.00;35.00;;;;;;;;5014457;28;51188;-54
2021/09/22 07:32:42;;;;;;;;;56.25;45.00;;;;;;;;5013511;28;51824;-54
2021/09/22 07:35:07;;;;;;;;;47.25;38.50;;;;;;;;5013906;28;51062;-54
2021/09/22 07:37:32;;;;;;;;;38.00;34.25;;;;;;;;5020197;28;51048;-51
2021/09/22 07:39:58;;;;;;;;;44.75;38.00;;;;;;;;5033044;28;51092;-53
2021/09/22 07:42:23;;;;;;;;;41.50;35.50;;;;;;;;5032262;28;51058;-53
2021/09/22 07:44:54;;;;;;;;;43.00;34.75;;;;;;;;5033342;28;51008;-54
2021/09/22 07:47:20;;;;;;;;;37.75;33.75;;;;;;;;5033627;28;50920;-55
2021/09/22 07:49:45;;;;;;;;;37.25;32.50;;;;;;;;5034262;28;50845;-51
2021/09/22 07:52:11;;;;;;;;;35.50;32.00;;;;;;;;5033446;28;52079;-51
2021/09/22 07:54:39;;;;;;;;;36.25;32.50;;;;;;;;5023756;28;51113;-54
2021/09/22 07:57:04;;;;;;;;;37.50;32.50;;;;;;;;5017389;28;51104;-53
2021/09/22 07:59:30;;;;;;;;;38.50;32.25;;;;;;;;5014236;28;51146;-52
2021/09/22 08:01:56;;;;;;;;;41.00;34.50;;;;;;;;5013172;28;51171;-52
2021/09/22 08:04:21;;;;;;;;;33.00;29.75;;;;;;;;5013899;28;51062;-54
2021/09/22 08:06:47;;;;;;;;;28.75;28.00;;;;;;;;5013723;28;51328;-52
2021/09/22 08:09:12;;;;;;;;;28.00;27.50;;;;;;;;5013861;28;51156;-53
2021/09/22 08:11:37;;;;;;;;;26.00;26.00;;;;;;;;5012430;28;51554;-53
2021/09/22 08:14:03;;;;;;;;;24.25;23.25;;;;;;;;5027226;28;51028;-54
2021/09/22 08:16:28;;;;;;;;;31.00;29.25;;;;;;;;5032539;28;51664;-52
2021/09/22 08:18:53;;;;;;;;;29.75;27.75;;;;;;;;5014023;28;50972;-51
2021/09/22 08:21:19;;;;;;;;;29.50;27.00;;;;;;;;5027785;28;51053;-52
2021/09/22 08:23:44;;;;;;;;;26.00;25.00;;;;;;;;5035816;28;51051;-54
2021/09/22 08:26:09;;;;;;;;;26.50;25.75;;;;;;;;5033892;28;50944;-52
2021/09/22 08:28:35;;;;;;;;;22.00;22.00;;;;;;;;5013375;28;50842;-54
2021/09/22 08:31:00;;;;;;;;;20.75;20.25;;;;;;;;5013103;28;51778;-53
2021/09/22 08:33:25;;;;;;;;;28.25;25.25;;;;;;;;5013087;28;51179;-53
2021/09/22 08:35:51;;;;;;;;;27.75;27.00;;;;;;;;5013493;28;51196;-55
2021/09/22 08:38:17;;;;;;;;;28.33;26.00;;;;;;;;5026038;28;51210;-53
2021/09/22 08:40:43;;;;;;;;;23.75;23.75;;;;;;;;5033053;28;51682;-53
2021/09/22 08:43:08;;;;;;;;;29.50;27.75;;;;;;;;5032728;28;50943;-53
2021/09/22 08:45:36;;;;;;;;;27.00;26.75;;;;;;;;5033335;28;51529;-53
2021/09/22 08:48:02;;;;;;;;;26.75;25.00;;;;;;;;5015230;28;51152;-52
2021/09/22 08:50:28;;;;;;;;;23.50;23.00;;;;;;;;5032867;28;51690;-52
2021/09/22 08:52:53;;;;;;;;;24.75;24.25;;;;;;;;5031332;28;50877;-54
2021/09/22 08:55:18;;;;;;;;;28.25;27.00;;;;;;;;5047327;28;51121;-54
2021/09/22 08:57:44;;;;;;;;;26.25;25.25;;;;;;;;5013128;28;50808;-52
2021/09/22 09:00:10;;;;;;;;;25.50;24.75;;;;;;;;5012417;28;51071;-54
2021/09/22 09:02:40;;;;;;;;;23.25;23.25;;;;;;;;5013074;28;50928;-53
2021/09/22 09:05:07;;;;;;;;;25.75;24.25;;;;;;;;5012553;28;51479;-53
2021/09/22 09:07:33;;;;;;;;;24.25;23.50;;;;;;;;4994928;28;51257;-53
2021/09/22 09:10:03;;;;;;;;;24.75;24.00;;;;;;;;5011869;28;50967;-58
2021/09/22 09:12:29;;;;;;;;;22.25;21.25;;;;;;;;4995703;28;51118;-52
2021/09/22 09:14:59;;;;;;;;;26.75;26.50;;;;;;;;5032381;28;51003;-53
2021/09/22 09:17:42;;;;;;;;;21.75;21.50;;;;;;;;5024032;28;51235;-56
2021/09/22 09:20:15;;;;;;;;;23.00;22.75;;;;;;;;5028067;28;52805;-54
2021/09/22 09:22:40;;;;;;;;;24.50;24.00;;;;;;;;5032406;28;50959;-54
2021/09/22 09:25:07;;;;;;;;;23.50;23.25;;;;;;;;5029815;28;51167;-55
2021/09/22 09:27:36;;;;;;;;;26.00;26.00;;;;;;;;5031492;28;51098;-53
2021/09/22 09:30:14;;;;;;;;;20.75;19.25;;;;;;;;5031778;28;51024;-54
2021/09/22 09:32:39;;;;;;;;;25.25;23.25;;;;;;;;5038531;28;50910;-54
2021/09/22 09:35:07;;;;;;;;;23.50;21.75;;;;;;;;5012184;28;50911;-53
2021/09/22 09:37:58;;;;;;;;;22.00;21.25;;;;;;;;5019381;28;50942;-54
2021/09/22 09:40:24;;;;;;;;;23.00;22.00;;;;;;;;5026359;28;52606;-54
2021/09/22 09:42:51;;;;;;;;;46.25;39.50;;;;;;;;5032412;28;51088;-53
2021/09/22 09:45:20;;;;;;;;;24.50;24.50;;;;;;;;5031890;28;51212;-54
2021/09/22 09:47:59;;;;;;;;;22.75;21.50;;;;;;;;5031979;28;51304;-53
2021/09/22 09:50:25;;;;;;;;;20.00;20.00;;;;;;;;5031767;28;52023;-54
2021/09/22 09:52:50;;;;;;;;;17.75;16.75;;;;;;;;5031945;28;51109;-52
2021/09/22 09:55:16;;;;;;;;;19.25;19.25;;;;;;;;5013688;28;51165;-54
2021/09/22 09:57:48;;;;;;;;;23.00;22.25;;;;;;;;5031857;28;51327;-53
2021/09/22 10:00:14;;;;;;;;;18.50;17.75;;;;;;;;5031733;28;51257;-54
2021/09/22 10:02:39;;;;;;;;;28.75;27.25;;;;;;;;5034008;28;51212;-52
2021/09/22 10:05:04;;;;;;;;;20.75;19.25;;;;;;;;5033391;28;51471;-52
2021/09/22 10:07:34;;;;;;;;;18.75;18.50;;;;;;;;5035479;28;51069;-54
2021/09/22 10:09:59;;;;;;;;;19.25;18.00;;;;;;;;5034542;28;52794;-54
2021/09/22 10:12:24;;;;;;;;;20.25;19.75;;;;;;;;5034934;28;50943;-54
2021/09/22 10:14:50;;;;;;;;;19.00;18.75;;;;;;;;5035242;28;51893;-55
2021/09/22 10:17:16;;;;;;;;;24.50;23.75;;;;;;;;5031622;28;51042;-54
2021/09/22 10:19:43;;;;;;;;;18.75;17.50;;;;;;;;5016343;28;52762;-54
2021/09/22 10:22:08;;;;;;;;;21.25;20.50;;;;;;;;5034573;28;51039;-53
2021/09/22 10:24:34;;;;;;;;;15.00;14.50;;;;;;;;5034569;28;51206;-54
2021/09/22 10:26:59;;;;;;;;;20.00;20.00;;;;;;;;5034751;28;51010;-54
2021/09/22 10:29:26;;;;;;;;;16.33;15.67;;;;;;;;5034239;28;52620;-54
2021/09/22 10:31:52;;;;;;;;;14.33;13.00;;;;;;;;5035478;28;50979;-54
2021/09/22 10:34:35;;;;;;;;;13.33;13.33;;;;;;;;5034885;28;50877;-52
2021/09/22 10:37:01;;;;;;;;;14.33;14.00;;;;;;;;5035088;28;50978;-54
2021/09/22 10:39:35;;;;;;;;;14.33;14.00;;;;;;;;5048545;28;52531;-54
2021/09/22 10:42:01;;;;;;;;;13.00;12.33;;;;;;;;5014996;28;51051;-54
2021/09/22 10:44:31;;;;;;;;;13.00;13.00;;;;;;;;5014626;28;51063;-53
2021/09/22 10:47:15;;;;;;;;;14.67;14.00;;;;;;;;5015049;28;51262;-54
2021/09/22 10:49:40;;;;;;;;;12.33;12.33;;;;;;;;5040161;28;50923;-54
2021/09/22 10:52:05;;;;;;;;;13.00;12.67;;;;;;;;5017198;28;51114;-55
2021/09/22 10:54:31;;;;;;;;;16.50;15.75;;;;;;;;4996153;28;51536;-54
2021/09/22 10:57:00;;;;;;;;;15.75;15.75;;;;;;;;5014395;28;50912;-54
2021/09/22 10:59:37;;;;;;;;;12.67;12.33;;;;;;;;4995810;28;52880;-55
2021/09/22 11:02:04;;;;;;;;;10.67;10.67;;;;;;;;4996580;28;51043;-54
2021/09/22 11:04:48;;;;;;;;;9.33;9.33;;;;;;;;4996461;28;50941;-55
2021/09/22 11:07:13;;;;;;;;;13.00;11.67;;;;;;;;5014210;28;50899;-54
2021/09/22 11:09:39;;;;;;;;;10.33;10.33;;;;;;;;5013588;28;51878;-54
2021/09/22 11:12:06;;;;;;;;;13.00;12.33;;;;;;;;5013594;28;50921;-54
2021/09/22 11:14:34;;;;;;;;;10.67;10.67;;;;;;;;5027784;28;52378;-58
2021/09/22 11:17:03;;;;;;;;;14.67;14.67;;;;;;;;5027030;28;51193;-55
2021/09/22 11:19:29;;;;;;;;;13.25;13.00;;;;;;;;5037036;28;52160;-53
2021/09/22 11:21:55;;;;;;;;;15.00;13.00;;;;;;;;5013647;28;50914;-54
2021/09/22 11:24:23;;;;;;;;;14.25;13.50;;;;;;;;5013289;28;51271;-54
2021/09/22 11:26:52;;;;;;;;;14.67;13.67;;;;;;;;5013336;28;51386;-52
2021/09/22 11:29:30;;;;;;;;;10.33;9.67;;;;;;;;5012893;28;53547;-54
2021/09/22 11:31:55;;;;;;;;;9.67;9.67;;;;;;;;5012949;28;50944;-54
2021/09/22 11:34:25;;;;;;;;;12.00;11.33;;;;;;;;5013767;28;51169;-53
2021/09/22 11:37:06;;;;;;;;;8.00;8.00;;;;;;;;5014770;28;50979;-54
2021/09/22 11:39:32;;;;;;;;;7.33;7.33;;;;;;;;5032429;28;51878;-53
2021/09/22 11:41:57;;;;;;;;;13.75;13.75;;;;;;;;5032496;28;50883;-53
2021/09/22 11:44:27;;;;;;;;;10.00;9.00;;;;;;;;5033293;28;51042;-54
2021/09/22 11:46:53;;;;;;;;;10.67;9.67;;;;;;;;5015459;28;51139;-53
2021/09/22 11:49:18;;;;;;;;;9.67;8.33;;;;;;;;5033007;28;51774;-53
2021/09/22 11:51:43;;;;;;;;;9.00;9.00;;;;;;;;5032469;28;51013;-54
2021/09/22 11:54:19;;;;;;;;;8.00;8.00;;;;;;;;5014995;28;51129;-54
2021/09/22 11:56:44;;;;;;;;;7.00;7.00;;;;;;;;5035887;28;51377;-54
2021/09/22 11:59:10;;;;;;;;;9.33;9.33;;;;;;;;5021803;28;51810;-54
2021/09/22 12:01:35;;;;;;;;;9.33;9.33;;;;;;;;5013025;28;50961;-54
2021/09/22 12:04:00;;;;;;;;;9.00;8.33;;;;;;;;5013118;28;51136;-55
2021/09/22 12:06:26;;;;;;;;;10.67;9.67;;;;;;;;5013114;28;50969;-54
2021/09/22 12:08:53;;;;;;;;;9.00;8.33;;;;;;;;5012285;28;52716;-54
2021/09/22 12:11:19;;;;;;;;;7.33;7.33;;;;;;;;5013437;28;50980;-52
2021/09/22 12:13:47;;;;;;;;;10.00;10.00;;;;;;;;5024480;28;51147;-53
2021/09/22 12:16:13;;;;;;;;;10.50;10.00;;;;;;;;5033001;28;51111;-53
2021/09/22 12:18:48;;;;;;;;;8.33;8.33;;;;;;;;5024937;28;51129;-53
2021/09/22 12:21:14;;;;;;;;;9.00;7.33;;;;;;;;5033134;28;50816;-55
2021/09/22 12:23:39;;;;;;;;;8.00;8.00;;;;;;;;5032154;28;51445;-53
2021/09/22 12:26:14;;;;;;;;;9.67;9.67;;;;;;;;5032843;28;51340;-54
2021/09/22 12:28:40;;;;;;;;;9.33;9.33;;;;;;;;5014124;28;51144;-54
2021/09/22 12:31:16;;;;;;;;;8.67;8.67;;;;;;;;5036140;28;50999;-54
2021/09/22 12:33:42;;;;;;;;;11.00;10.33;;;;;;;;5029428;28;51129;-54
2021/09/22 12:36:13;;;;;;;;;10.00;10.00;;;;;;;;5012700;28;51287;-55
2021/09/22 12:38:49;;;;;;;;;11.00;10.33;;;;;;;;5028513;28;51829;-55
2021/09/22 12:41:15;;;;;;;;;7.33;7.00;;;;;;;;5032806;28;50947;-51
2021/09/22 12:43:41;;;;;;;;;10.00;9.00;;;;;;;;5032484;28;51165;-55
2021/09/22 12:46:09;;;;;;;;;9.33;9.33;;;;;;;;5033071;28;51134;-53
2021/09/22 12:48:34;;;;;;;;;11.67;11.00;;;;;;;;5032071;28;52125;-52
2021/09/22 12:51:00;;;;;;;;;11.00;11.00;;;;;;;;5032707;28;50971;-55
2021/09/22 12:53:30;;;;;;;;;9.00;9.00;;;;;;;;5018520;28;51136;-53
2021/09/22 12:55:56;;;;;;;;;10.67;10.67;;;;;;;;5013099;28;50888;-54
2021/09/22 12:58:31;;;;;;;;;9.33;9.33;;;;;;;;5012890;28;52209;-54
2021/09/22 13:00:57;;;;;;;;;12.00;12.00;;;;;;;;5033600;28;51216;-52
2021/09/22 13:03:35;;;;;;;;;11.00;9.33;;;;;;;;5024503;28;51060;-54
2021/09/22 13:06:19;;;;;;;;;10.00;9.67;;;;;;;;5012668;28;51162;-54
2021/09/22 13:09:13;;;;;;;;;13.33;10.00;;;;;;;;5011759;28;51356;-54
2021/09/22 13:11:42;;;;;;;;;7.00;7.00;;;;;;;;4994538;28;51202;-54
2021/09/22 13:14:07;;;;;;;;;10.00;10.00;;;;;;;;5026178;28;51065;-55
2021/09/22 13:16:39;;;;;;;;;10.00;10.00;;;;;;;;5031469;28;51015;-54
2021/09/22 13:19:13;;;;;;;;;11.00;11.00;;;;;;;;5040908;28;53008;-55
2021/09/22 13:21:39;;;;;;;;;9.67;9.00;;;;;;;;5042570;28;51110;-54
2021/09/22 13:24:06;;;;;;;;;11.33;11.33;;;;;;;;5011508;28;50963;-54
2021/09/22 13:26:32;;;;;;;;;8.00;8.00;;;;;;;;5011853;28;50916;-54
2021/09/22 13:29:01;;;;;;;;;9.33;9.33;;;;;;;;5011668;28;51935;-55
2021/09/22 13:31:27;;;;;;;;;10.00;9.00;;;;;;;;5011823;28;51000;-54
2021/09/22 13:33:52;;;;;;;;;7.67;7.67;;;;;;;;5011713;28;50979;-54
2021/09/22 13:36:17;;;;;;;;;7.67;7.67;;;;;;;;5011910;28;51320;-53
2021/09/22 13:38:43;;;;;;;;;4.33;4.33;;;;;;;;5027652;28;51614;-54
2021/09/22 13:41:09;;;;;;;;;13.00;12.00;;;;;;;;5034715;28;51135;-54
2021/09/22 13:43:35;;;;;;;;;7.33;7.33;;;;;;;;5034748;28;50974;-55
2021/09/22 13:46:01;;;;;;;;;10.75;10.75;;;;;;;;5035191;28;51225;-54
2021/09/22 13:48:27;;;;;;;;;9.33;9.00;;;;;;;;5035266;28;51662;-54
2021/09/22 13:50:52;;;;;;;;;13.00;11.00;;;;;;;;5043137;28;50992;-53
2021/09/22 13:53:18;;;;;;;;;7.33;7.33;;;;;;;;5031994;28;50829;-53
2021/09/22 13:55:44;;;;;;;;;8.33;7.00;;;;;;;;5015138;28;50894;-53
2021/09/22 13:58:10;;;;;;;;;10.00;9.00;;;;;;;;4996916;28;53177;-55
2021/09/22 14:00:35;;;;;;;;;11.00;9.00;;;;;;;;5014913;28;51053;-55
2021/09/22 14:03:01;;;;;;;;;7.00;7.00;;;;;;;;4996630;28;51023;-55
2021/09/22 14:05:26;;;;;;;;;9.00;8.00;;;;;;;;5015207;28;51055;-54
2021/09/22 14:07:51;;;;;;;;;7.67;7.33;;;;;;;;5014256;28;51895;-54
2021/09/22 14:10:16;;;;;;;;;8.33;8.00;;;;;;;;5014806;28;51073;-56
2021/09/22 14:12:42;;;;;;;;;9.00;8.33;;;;;;;;5009588;28;51287;-54
2021/09/22 14:15:07;;;;;;;;;11.00;10.00;;;;;;;;5034615;28;51081;-53
2021/09/22 14:17:33;;;;;;;;;9.00;9.00;;;;;;;;5027921;28;51075;-52
2021/09/22 14:19:58;;;;;;;;;7.33;7.33;;;;;;;;5034630;28;51193;-52